createdAt,value
2017-10-04T00:03:05.490Z,1014.91
2017-10-04T00:13:05.434Z,1014.85
2017-10-04T00:23:05.485Z,1014.83
2017-10-04T00:33:05.449Z,1014.85
2017-10-04T00:43:05.500Z,1014.89
2017-10-04T00:53:05.480Z,1014.77
2017-10-04T01:03:05.547Z,1014.68
2017-10-04T01:13:05.501Z,1014.47
2017-10-04T01:23:05.472Z,1014.43
2017-10-04T01:33:05.532Z,1014.43
2017-10-04T01:43:05.485Z,1014.51
2017-10-04T01:53:05.544Z,1014.46
2017-10-04T02:03:05.506Z,1014.41
2017-10-04T02:13:05.565Z,1014.34
2017-10-04T02:23:05.531Z,1014.22
2017-10-04T02:33:05.594Z,1014.28
2017-10-04T02:43:05.554Z,1014.23
2017-10-04T02:53:05.607Z,1014.04
2017-10-04T03:03:05.562Z,1013.96
2017-10-04T03:13:05.644Z,1013.93
2017-10-04T03:23:05.617Z,1014.09
2017-10-04T03:33:05.647Z,1014.08
2017-10-04T03:43:05.610Z,1013.85
2017-10-04T03:53:05.691Z,1013.76
2017-10-04T04:03:05.647Z,1013.67
2017-10-04T04:13:05.717Z,1013.51
2017-10-04T04:23:05.700Z,1013.44
2017-10-04T04:33:05.634Z,1013.43
2017-10-04T04:43:05.688Z,1013.41
2017-10-04T04:53:05.642Z,1013.34
2017-10-04T05:03:05.724Z,1013.32
2017-10-04T05:13:05.667Z,1013.36
2017-10-04T05:23:05.762Z,1013.32
2017-10-04T05:33:05.695Z,1013.21
2017-10-04T05:43:05.755Z,1013.18
2017-10-04T05:53:05.722Z,1013.28
2017-10-04T06:03:05.787Z,1013.31
2017-10-04T06:13:05.738Z,1013.14
2017-10-04T06:23:05.820Z,1013.16
2017-10-04T06:33:05.775Z,1013.16
2017-10-04T06:43:05.729Z,1013.19
2017-10-04T06:53:05.799Z,1013.13
2017-10-04T07:04:14.071Z,1013.07
2017-10-04T07:13:05.813Z,1013.03
2017-10-04T07:23:05.790Z,1013.03
2017-10-04T07:33:05.854Z,1012.74
2017-10-04T07:43:05.828Z,1012.72
2017-10-04T07:53:05.944Z,1012.97
2017-10-04T08:03:05.836Z,1013.19
2017-10-04T08:13:05.904Z,1013.2
2017-10-04T08:23:05.837Z,1012.96
2017-10-04T08:33:05.876Z,1013.06
2017-10-04T08:43:05.889Z,1013.19
2017-10-04T08:53:05.933Z,1013.18
2017-10-04T09:03:05.875Z,1012.9
2017-10-04T09:13:05.962Z,1013.15
2017-10-04T09:23:05.921Z,1012.88
2017-10-04T09:33:05.995Z,1012.73
2017-10-04T09:43:05.898Z,1012.88
2017-10-04T09:53:05.921Z,1012.29
2017-10-04T10:03:05.920Z,1012.43
2017-10-04T10:13:05.920Z,1012.57
2017-10-04T10:23:05.928Z,1012.46
2017-10-04T10:33:05.942Z,1012.53
2017-10-04T10:43:05.970Z,1012.65
2017-10-04T10:53:05.961Z,1012.36
2017-10-04T11:03:05.984Z,1012.5
2017-10-04T11:13:05.976Z,1012.68
2017-10-04T11:23:06.008Z,1012.21
2017-10-04T11:33:05.999Z,1012.03
2017-10-04T11:43:06.010Z,1011.96
2017-10-04T11:53:06.004Z,1011.99
2017-10-04T12:03:06.011Z,1011.96
2017-10-04T12:13:06.013Z,1011.87
2017-10-04T12:23:06.010Z,1011.78
2017-10-04T12:33:06.014Z,1011.67
2017-10-04T12:43:05.997Z,1011.57
2017-10-04T12:53:06.026Z,1011.57
2017-10-04T13:03:06.010Z,1011.24
2017-10-04T13:13:06.061Z,1011.24
2017-10-04T13:23:06.115Z,1011.07
2017-10-04T13:33:06.088Z,1011.13
2017-10-04T13:43:06.027Z,1011.33
2017-10-04T13:53:06.091Z,1011.04
2017-10-04T14:03:06.046Z,1011.06
2017-10-04T14:13:06.109Z,1011.09
2017-10-04T14:23:06.093Z,1010.95
2017-10-04T14:33:06.042Z,1010.9
2017-10-04T14:43:06.127Z,1010.86
2017-10-04T14:53:06.072Z,1010.77
2017-10-04T15:03:06.142Z,1010.62
2017-10-04T15:13:06.103Z,1010.48
2017-10-04T15:23:06.039Z,1010.49
2017-10-04T15:33:06.112Z,1010.36
2017-10-04T15:43:06.041Z,1010.23
2017-10-04T15:53:06.017Z,1010.47
2017-10-04T16:03:06.023Z,1010.35
2017-10-04T16:13:06.013Z,1010.24
2017-10-04T16:23:06.029Z,1010.33
2017-10-04T16:33:06.013Z,1009.97
2017-10-04T16:43:06.010Z,1010.32
2017-10-04T16:53:06.012Z,1010.02
2017-10-04T17:03:06.036Z,1009.98
2017-10-04T17:13:06.039Z,1009.97
2017-10-04T17:23:08.104Z,1009.64
2017-10-04T17:33:06.046Z,1009.53
2017-10-04T17:43:06.021Z,1009.58
2017-10-04T17:53:06.026Z,1009.73
2017-10-04T18:03:06.010Z,1009.94
2017-10-04T18:13:06.001Z,1009.9
2017-10-04T18:23:06.010Z,1010.17
2017-10-04T18:33:06.042Z,1010.23
2017-10-04T18:43:06.023Z,1010.12
2017-10-04T18:53:06.017Z,1009.93
2017-10-04T19:03:06.046Z,1010.04
2017-10-04T19:13:06.019Z,1009.82
2017-10-04T19:23:06.019Z,1009.76
2017-10-04T19:33:05.997Z,1009.8
2017-10-04T19:43:06.010Z,1009.71
2017-10-04T19:53:06.019Z,1009.42
2017-10-04T20:03:06.032Z,1009.2
2017-10-04T20:13:06.124Z,1009.52
2017-10-04T20:23:06.070Z,1009.64
2017-10-04T20:33:06.280Z,1009.27
2017-10-04T20:43:06.094Z,1009.21
2017-10-04T20:53:06.046Z,1008.93
2017-10-04T21:03:06.138Z,1008.88
2017-10-04T21:13:06.081Z,1008.93
2017-10-04T21:23:06.053Z,1008.92
2017-10-04T21:33:06.093Z,1008.95
2017-10-04T21:43:05.991Z,1008.74
2017-10-04T21:53:06.102Z,1008.6
2017-10-04T22:03:06.072Z,1008.51
2017-10-04T22:13:06.039Z,1008.27
2017-10-04T22:23:06.094Z,1008.18
2017-10-04T22:33:06.072Z,1008.18
2017-10-04T22:43:06.032Z,1007.87
2017-10-04T22:53:06.075Z,1007.85
2017-10-04T23:03:06.263Z,1007.54
2017-10-04T23:13:06.303Z,1007.36
2017-10-04T23:23:06.054Z,1007.26
2017-10-04T23:33:06.030Z,1006.97
2017-10-04T23:43:06.100Z,1006.69
2017-10-04T23:53:06.045Z,1006.59
